createdAt,value
2022-08-17T00:00:43.957Z,100.00
2022-08-17T00:03:19.682Z,100.00
2022-08-17T00:06:12.337Z,100.00
2022-08-17T00:09:01.741Z,100.00
2022-08-17T00:11:38.707Z,100.00
2022-08-17T00:14:19.975Z,100.00
2022-08-17T00:16:57.247Z,100.00
2022-08-17T00:19:27.038Z,100.00
2022-08-17T00:22:33.811Z,100.00
2022-08-17T00:24:49.226Z,100.00
2022-08-17T00:27:18.733Z,100.00
2022-08-17T00:29:47.348Z,100.00
2022-08-17T00:33:14.482Z,100.00
2022-08-17T00:35:08.250Z,100.00
2022-08-17T00:37:36.905Z,100.00
2022-08-17T00:40:07.220Z,100.00
2022-08-17T00:42:36.368Z,100.00
2022-08-17T00:45:08.407Z,100.00
2022-08-17T00:47:37.071Z,100.00
2022-08-17T00:50:09.776Z,100.00
2022-08-17T00:52:48.153Z,100.00
2022-08-17T00:55:17.860Z,100.00
2022-08-17T00:57:55.216Z,100.00
2022-08-17T01:00:40.683Z,100.00
2022-08-17T01:03:19.776Z,100.00
2022-08-17T01:05:52.137Z,100.00
2022-08-17T01:08:26.297Z,100.00
2022-08-17T01:11:01.858Z,100.00
2022-08-17T01:13:43.177Z,100.00
2022-08-17T01:16:22.323Z,100.00
2022-08-17T01:18:55.649Z,100.00
2022-08-17T01:21:52.158Z,100.00
2022-08-17T01:24:21.365Z,100.00
2022-08-17T01:26:50.594Z,100.00
2022-08-17T01:29:22.523Z,100.00
2022-08-17T01:31:59.080Z,100.00
2022-08-17T01:34:42.429Z,100.00
2022-08-17T01:37:15.117Z,100.00
2022-08-17T01:39:56.365Z,100.00
2022-08-17T01:42:36.853Z,100.00
2022-08-17T01:45:13.023Z,100.00
2022-08-17T01:47:42.321Z,100.00
2022-08-17T01:50:20.020Z,100.00
2022-08-17T01:52:54.373Z,100.00
2022-08-17T01:55:32.344Z,100.00
2022-08-17T01:58:02.144Z,100.00
2022-08-17T02:01:00.279Z,100.00
2022-08-17T02:03:23.115Z,100.00
2022-08-17T02:05:53.690Z,100.00
2022-08-17T02:08:36.984Z,100.00
2022-08-17T02:11:16.935Z,100.00
2022-08-17T02:13:48.645Z,100.00
2022-08-17T02:16:26.501Z,100.00
2022-08-17T02:19:14.382Z,100.00
2022-08-17T02:21:46.072Z,100.00
2022-08-17T02:24:59.842Z,100.00
2022-08-17T02:27:18.294Z,100.00
2022-08-17T02:29:47.013Z,100.00
2022-08-17T02:32:28.107Z,100.00
2022-08-17T02:34:58.981Z,100.00
2022-08-17T02:37:32.091Z,100.00
2022-08-17T02:40:00.947Z,100.00
2022-08-17T02:42:41.091Z,100.00
2022-08-17T02:45:18.149Z,100.00
2022-08-17T02:47:47.884Z,100.00
2022-08-17T02:50:20.809Z,100.00
2022-08-17T02:52:53.253Z,100.00
2022-08-17T02:55:35.546Z,100.00
2022-08-17T02:58:05.283Z,100.00
2022-08-17T03:00:41.273Z,100.00
2022-08-17T03:03:13.898Z,100.00
2022-08-17T03:05:43.214Z,100.00
2022-08-17T03:08:13.383Z,100.00
2022-08-17T03:10:44.415Z,100.00
2022-08-17T03:13:14.941Z,100.00
2022-08-17T03:15:45.663Z,100.00
2022-08-17T03:18:24.190Z,100.00
2022-08-17T03:21:01.637Z,100.00
2022-08-17T03:23:32.571Z,100.00
2022-08-17T03:26:01.575Z,100.00
2022-08-17T03:28:31.062Z,100.00
2022-08-17T03:30:59.788Z,100.00
2022-08-17T03:33:28.373Z,100.00
2022-08-17T03:35:57.431Z,100.00
2022-08-17T03:38:26.710Z,100.00
2022-08-17T03:40:59.478Z,100.00
2022-08-17T03:43:31.756Z,100.00
2022-08-17T03:46:34.190Z,100.00
2022-08-17T03:49:25.940Z,100.00
2022-08-17T03:52:15.052Z,100.00
2022-08-17T03:55:03.444Z,100.00
2022-08-17T03:57:32.562Z,100.00
2022-08-17T04:00:01.374Z,100.00
2022-08-17T04:02:42.987Z,100.00
2022-08-17T04:05:11.623Z,100.00
2022-08-17T04:07:40.373Z,100.00
2022-08-17T04:10:09.267Z,100.00
2022-08-17T04:12:53.143Z,100.00
2022-08-17T04:15:23.260Z,100.00
2022-08-17T04:17:53.266Z,100.00
2022-08-17T04:20:24.526Z,100.00
2022-08-17T04:23:10.018Z,100.00
2022-08-17T04:25:43.744Z,100.00
2022-08-17T04:28:16.163Z,100.00
2022-08-17T04:30:46.916Z,100.00
2022-08-17T04:33:25.846Z,100.00
2022-08-17T04:35:59.383Z,100.00
2022-08-17T04:38:35.664Z,100.00
2022-08-17T04:41:24.085Z,100.00
2022-08-17T04:43:58.694Z,100.00
2022-08-17T04:46:36.358Z,100.00
2022-08-17T04:49:11.716Z,100.00
2022-08-17T04:51:54.705Z,100.00
2022-08-17T04:54:25.578Z,100.00
2022-08-17T04:56:54.287Z,100.00
2022-08-17T04:59:23.452Z,100.00
2022-08-17T05:01:52.811Z,100.00
2022-08-17T05:04:33.802Z,100.00
2022-08-17T05:07:04.943Z,100.00
2022-08-17T05:09:33.697Z,100.00
2022-08-17T05:12:03.349Z,99.62
2022-08-17T05:14:33.650Z,98.96
2022-08-17T05:17:07.234Z,98.64
2022-08-17T05:19:38.277Z,98.11
2022-08-17T05:22:07.056Z,97.43
2022-08-17T05:24:40.731Z,96.53
2022-08-17T05:27:15.897Z,96.96
2022-08-17T05:29:48.108Z,96.47
2022-08-17T05:32:39.480Z,96.66
2022-08-17T05:35:06.811Z,96.13
2022-08-17T05:37:35.506Z,95.46
2022-08-17T05:40:05.250Z,92.49
2022-08-17T05:42:33.964Z,92.12
2022-08-17T05:45:02.572Z,91.64
2022-08-17T05:47:31.583Z,91.41
2022-08-17T05:50:02.147Z,90.47
2022-08-17T05:53:18.590Z,87.90
2022-08-17T05:56:29.354Z,87.13
2022-08-17T05:59:17.308Z,87.93
2022-08-17T06:02:05.729Z,87.83
2022-08-17T06:05:18.922Z,85.79
2022-08-17T06:08:02.878Z,84.05
2022-08-17T06:10:49.559Z,84.44
2022-08-17T06:13:42.184Z,84.12
2022-08-17T06:16:33.152Z,83.65
2022-08-17T06:19:23.615Z,82.65
2022-08-17T06:21:55.916Z,82.07
2022-08-17T06:24:44.216Z,79.33
2022-08-17T06:27:18.975Z,78.64
2022-08-17T06:30:01.304Z,78.53
2022-08-17T06:32:30.158Z,78.60
2022-08-17T06:35:01.628Z,78.22
2022-08-17T06:38:36.891Z,79.07
2022-08-17T06:41:54.950Z,79.08
2022-08-17T06:44:50.057Z,78.62
2022-08-17T06:48:13.383Z,77.62
2022-08-17T06:50:53.673Z,76.50
2022-08-17T06:53:29.553Z,74.95
2022-08-17T06:56:25.805Z,75.00
2022-08-17T07:01:23.219Z,75.06
2022-08-17T07:04:19.375Z,75.93
2022-08-17T07:07:27.200Z,75.50
2022-08-17T07:10:00.428Z,75.67
2022-08-17T07:12:38.669Z,75.75
2022-08-17T07:15:26.380Z,75.21
2022-08-17T07:17:55.962Z,74.40
2022-08-17T07:20:25.460Z,73.31
2022-08-17T07:23:34.793Z,74.60
2022-08-17T07:26:09.549Z,75.78
2022-08-17T07:28:40.796Z,77.11
2022-08-17T07:31:09.666Z,77.36
2022-08-17T07:33:39.653Z,77.20
2022-08-17T07:36:30.066Z,77.98
2022-08-17T07:38:59.105Z,78.28
2022-08-17T07:41:53.334Z,79.35
2022-08-17T07:44:21.066Z,80.18
2022-08-17T07:47:11.869Z,79.67
2022-08-17T07:49:46.573Z,80.32
2022-08-17T07:52:51.167Z,80.63
2022-08-17T07:55:35.637Z,81.33
2022-08-17T07:58:04.292Z,81.39
2022-08-17T08:00:34.025Z,81.27
2022-08-17T08:03:16.836Z,80.92
2022-08-17T08:05:56.568Z,80.83
2022-08-17T08:08:37.903Z,80.88
2022-08-17T08:11:18.098Z,80.24
2022-08-17T08:13:46.904Z,79.44
2022-08-17T08:16:26.259Z,77.75
2022-08-17T08:19:02.147Z,76.51
2022-08-17T08:21:52.284Z,75.79
2022-08-17T08:24:32.929Z,73.99
2022-08-17T08:27:41.426Z,72.44
2022-08-17T08:30:19.598Z,70.95
2022-08-17T08:32:57.682Z,70.79
2022-08-17T08:39:09.344Z,72.28
2022-08-17T08:46:07.084Z,71.45
2022-08-17T08:49:12.070Z,70.74
2022-08-17T08:51:58.067Z,69.21
2022-08-17T08:54:48.935Z,68.36
2022-08-17T08:57:41.727Z,68.88
2022-08-17T09:00:20.799Z,67.54
2022-08-17T09:15:29.117Z,65.62
2022-08-17T09:19:00.247Z,66.06
2022-08-17T09:21:18.084Z,66.23
2022-08-17T09:24:26.623Z,67.78
2022-08-17T09:27:19.068Z,68.40
2022-08-17T09:30:01.048Z,69.47
2022-08-17T09:32:42.976Z,70.88
2022-08-17T09:35:37.470Z,71.88
2022-08-17T09:38:15.191Z,72.18
2022-08-17T09:41:16.401Z,72.39
2022-08-17T09:44:27.149Z,73.04
2022-08-17T09:47:10.668Z,71.70
2022-08-17T09:50:08.978Z,70.17
2022-08-17T09:52:38.137Z,69.52
2022-08-17T09:55:07.311Z,68.57
2022-08-17T09:57:49.500Z,67.13
2022-08-17T10:00:32.800Z,67.22
2022-08-17T10:03:28.485Z,66.23
2022-08-17T10:06:06.575Z,66.47
2022-08-17T10:09:13.497Z,65.88
2022-08-17T10:12:16.730Z,64.86
2022-08-17T10:15:11.523Z,64.53
2022-08-17T10:17:56.634Z,63.74
2022-08-17T10:20:45.474Z,63.18
2022-08-17T10:23:45.207Z,62.27
2022-08-17T10:26:27.279Z,61.36
2022-08-17T10:29:20.400Z,61.00
2022-08-17T10:32:05.004Z,60.11
2022-08-17T10:35:04.366Z,58.70
2022-08-17T10:37:56.909Z,59.02
2022-08-17T10:40:37.226Z,58.14
2022-08-17T10:43:36.542Z,57.17
2022-08-17T10:46:52.554Z,57.80
2022-08-17T10:49:21.529Z,57.99
2022-08-17T10:51:57.244Z,58.46
2022-08-17T10:54:25.748Z,57.37
2022-08-17T10:56:57.082Z,55.72
2022-08-17T10:59:37.732Z,54.04
2022-08-17T11:02:39.222Z,53.96
2022-08-17T11:05:46.836Z,53.47
2022-08-17T11:09:01.165Z,53.73
2022-08-17T11:12:07.472Z,54.88
2022-08-17T11:14:48.907Z,53.99
2022-08-17T11:17:35.506Z,53.91
2022-08-17T11:24:34.730Z,52.35
2022-08-17T11:27:05.985Z,53.23
2022-08-17T11:30:01.853Z,52.38
2022-08-17T11:32:48.682Z,52.42
2022-08-17T11:35:21.798Z,51.81
2022-08-17T11:38:03.370Z,50.73
2022-08-17T11:40:38.817Z,51.58
2022-08-17T11:43:43.700Z,53.14
2022-08-17T11:47:17.090Z,55.20
2022-08-17T11:50:36.716Z,57.44
2022-08-17T11:53:06.659Z,57.50
2022-08-17T11:55:39.407Z,55.39
2022-08-17T11:58:44.712Z,54.14
2022-08-17T12:01:22.857Z,52.85
2022-08-17T12:03:58.053Z,51.32
2022-08-17T12:06:51.123Z,50.92
2022-08-17T12:11:02.073Z,50.27
2022-08-17T12:19:50.985Z,45.40
2022-08-17T12:24:27.752Z,43.87
2022-08-17T12:27:46.204Z,45.49
2022-08-17T12:30:32.879Z,45.12
2022-08-17T12:33:01.598Z,44.88
2022-08-17T12:35:36.831Z,45.98
2022-08-17T12:44:04.080Z,48.75
2022-08-17T12:55:41.028Z,43.73
2022-08-17T12:58:14.711Z,44.49
2022-08-17T13:01:17.418Z,44.88
2022-08-17T13:14:11.678Z,40.58
2022-08-17T13:16:40.345Z,39.88
2022-08-17T13:19:15.459Z,39.07
2022-08-17T13:22:04.120Z,38.20
2022-08-17T13:24:53.322Z,37.32
2022-08-17T13:27:26.022Z,36.96
2022-08-17T13:30:00.320Z,36.95
2022-08-17T13:32:48.279Z,37.86
2022-08-17T13:35:45.884Z,39.07
2022-08-17T13:38:49.763Z,39.22
2022-08-17T13:41:38.094Z,38.98
2022-08-17T13:44:37.137Z,37.79
2022-08-17T13:47:27.142Z,37.71
2022-08-17T13:49:56.346Z,37.37
2022-08-17T13:52:39.483Z,37.65
2022-08-17T13:55:32.282Z,36.12
2022-08-17T13:58:06.758Z,35.50
2022-08-17T14:00:36.977Z,36.16
2022-08-17T14:03:06.006Z,35.89
2022-08-17T14:05:37.425Z,36.08
2022-08-17T14:08:07.326Z,35.34
2022-08-17T14:10:36.849Z,34.89
2022-08-17T14:13:07.300Z,35.62
2022-08-17T14:15:55.725Z,35.96
2022-08-17T14:18:55.563Z,35.74
2022-08-17T14:21:14.085Z,35.34
2022-08-17T14:23:49.955Z,35.90
2022-08-17T14:26:26.834Z,36.26
2022-08-17T14:28:56.226Z,35.95
2022-08-17T14:33:34.175Z,36.61
2022-08-17T14:36:03.356Z,37.34
2022-08-17T14:38:32.715Z,38.14
2022-08-17T14:41:02.531Z,39.35
2022-08-17T14:43:35.516Z,40.60
2022-08-17T14:46:04.329Z,40.65
2022-08-17T14:48:35.186Z,41.01
2022-08-17T14:51:05.148Z,41.62
2022-08-17T14:53:43.407Z,41.85
2022-08-17T14:56:13.581Z,41.72
2022-08-17T14:58:42.789Z,41.33
2022-08-17T15:01:13.561Z,40.89
2022-08-17T15:03:42.976Z,40.42
2022-08-17T15:06:14.909Z,40.69
2022-08-17T15:08:45.151Z,41.33
2022-08-17T15:11:14.959Z,41.11
2022-08-17T15:13:52.480Z,41.74
2022-08-17T15:16:23.514Z,42.42
2022-08-17T15:18:52.974Z,42.96
2022-08-17T15:21:22.876Z,43.25
2022-08-17T15:23:51.619Z,43.61
2022-08-17T15:26:25.635Z,45.06
2022-08-17T15:28:56.347Z,45.64
2022-08-17T15:31:31.901Z,46.54
2022-08-17T15:34:01.324Z,46.75
2022-08-17T15:36:32.337Z,47.93
2022-08-17T15:39:01.057Z,49.05
2022-08-17T15:41:29.834Z,49.36
2022-08-17T15:43:58.551Z,49.77
2022-08-17T15:46:27.599Z,49.88
2022-08-17T15:48:59.461Z,50.96
2022-08-17T15:51:32.057Z,51.18
2022-08-17T15:54:19.046Z,51.67
2022-08-17T15:56:51.550Z,55.91
2022-08-17T15:59:20.387Z,59.83
2022-08-17T16:03:13.445Z,68.75
2022-08-17T16:04:40.339Z,73.02
2022-08-17T16:07:12.969Z,75.04
2022-08-17T16:09:42.230Z,75.70
2022-08-17T16:12:21.417Z,79.55
2022-08-17T16:14:51.988Z,83.43
2022-08-17T16:17:38.838Z,84.43
2022-08-17T16:20:20.472Z,86.48
2022-08-17T16:22:51.217Z,90.70
2022-08-17T16:25:38.865Z,97.43
2022-08-17T16:28:18.916Z,100.00
2022-08-17T16:30:47.625Z,100.00
2022-08-17T16:33:16.988Z,100.00
2022-08-17T16:35:45.607Z,100.00
2022-08-17T16:38:14.320Z,100.00
2022-08-17T16:40:42.959Z,100.00
2022-08-17T16:43:12.467Z,97.55
2022-08-17T16:45:42.631Z,95.82
2022-08-17T16:48:12.264Z,95.04
2022-08-17T16:50:41.039Z,96.73
2022-08-17T16:53:17.394Z,97.18
2022-08-17T16:55:48.995Z,96.48
2022-08-17T16:58:18.121Z,97.19
2022-08-17T17:00:48.946Z,98.81
2022-08-17T17:03:25.122Z,97.31
2022-08-17T17:05:59.920Z,99.32
2022-08-17T17:08:46.947Z,100.00
2022-08-17T17:11:44.406Z,99.81
2022-08-17T17:14:43.301Z,98.73
2022-08-17T17:17:24.327Z,99.33
2022-08-17T17:20:22.971Z,98.11
2022-08-17T17:23:23.216Z,96.67
2022-08-17T17:26:25.015Z,96.71
2022-08-17T17:29:09.330Z,95.80
2022-08-17T17:31:51.457Z,95.49
2022-08-17T17:34:21.225Z,95.98
2022-08-17T17:36:58.537Z,95.73
2022-08-17T17:39:46.232Z,96.80
2022-08-17T17:42:22.075Z,95.90
2022-08-17T17:45:26.277Z,95.37
2022-08-17T17:47:55.005Z,95.39
2022-08-17T17:50:38.377Z,95.68
2022-08-17T17:53:26.097Z,96.30
2022-08-17T17:56:40.522Z,99.29
2022-08-17T17:59:27.945Z,99.99
2022-08-17T18:02:51.967Z,99.99
2022-08-17T18:05:51.660Z,99.79
2022-08-17T18:08:38.267Z,99.78
2022-08-17T18:11:37.944Z,97.95
2022-08-17T18:14:45.959Z,96.24
2022-08-17T18:17:14.942Z,96.05
2022-08-17T18:19:43.540Z,95.83
2022-08-17T18:22:31.567Z,95.94
2022-08-17T18:25:00.176Z,95.61
2022-08-17T18:27:39.283Z,95.69
2022-08-17T18:30:14.097Z,96.23
2022-08-17T18:32:46.688Z,96.49
2022-08-17T18:35:15.242Z,96.48
2022-08-17T18:37:54.119Z,96.35
2022-08-17T18:40:33.563Z,97.43
2022-08-17T18:43:44.495Z,98.73
2022-08-17T18:46:29.714Z,100.00
2022-08-17T18:49:08.819Z,100.00
2022-08-17T18:51:43.169Z,100.00
2022-08-17T18:54:22.013Z,100.00
2022-08-17T18:56:59.397Z,100.00
2022-08-17T18:59:29.977Z,100.00
2022-08-17T19:01:59.343Z,100.00
2022-08-17T19:04:59.248Z,100.00
2022-08-17T19:07:38.349Z,100.00
2022-08-17T19:10:29.060Z,100.00
2022-08-17T19:13:23.921Z,100.00
2022-08-17T19:16:11.576Z,100.00
2022-08-17T19:18:56.945Z,100.00
2022-08-17T19:21:45.921Z,100.00
2022-08-17T19:24:23.147Z,100.00
2022-08-17T19:27:25.223Z,100.00
2022-08-17T19:30:12.471Z,100.00
2022-08-17T19:32:41.162Z,100.00
2022-08-17T19:35:17.166Z,100.00
2022-08-17T19:38:13.252Z,100.00
2022-08-17T19:41:37.473Z,100.00
2022-08-17T19:44:23.296Z,100.00
2022-08-17T19:47:43.787Z,100.00
2022-08-17T19:50:50.090Z,100.00
2022-08-17T19:54:04.473Z,100.00
2022-08-17T19:56:56.927Z,100.00
2022-08-17T20:00:02.510Z,100.00
2022-08-17T20:03:26.919Z,100.00
2022-08-17T20:07:19.549Z,100.00
2022-08-17T20:27:54.821Z,100.00
2022-08-17T20:30:56.505Z,100.00
2022-08-17T20:33:37.061Z,100.00
2022-08-17T20:36:20.548Z,100.00
2022-08-17T20:39:40.357Z,100.00
2022-08-17T20:46:11.930Z,100.00
2022-08-17T20:49:55.728Z,100.00
2022-08-17T20:52:55.289Z,100.00
2022-08-17T20:55:51.671Z,100.00
2022-08-17T20:58:31.129Z,100.00
2022-08-17T21:01:34.833Z,100.00
2022-08-17T21:04:09.283Z,100.00
2022-08-17T21:10:37.753Z,100.00
2022-08-17T21:13:13.803Z,100.00
2022-08-17T21:15:56.970Z,100.00
2022-08-17T21:18:39.232Z,100.00
2022-08-17T21:21:47.438Z,100.00
2022-08-17T21:24:47.912Z,100.00
2022-08-17T21:27:55.349Z,100.00
2022-08-17T21:30:28.642Z,100.00
2022-08-17T21:33:25.289Z,100.00
2022-08-17T21:35:59.575Z,100.00
2022-08-17T21:38:49.117Z,100.00
2022-08-17T21:41:29.133Z,100.00
2022-08-17T21:44:18.945Z,100.00
2022-08-17T21:46:50.832Z,100.00
2022-08-17T21:49:27.409Z,100.00
2022-08-17T21:51:59.234Z,100.00
2022-08-17T21:54:34.891Z,100.00
2022-08-17T21:57:16.279Z,100.00
2022-08-17T21:59:45.281Z,100.00
2022-08-17T22:02:43.758Z,100.00
2022-08-17T22:05:15.504Z,100.00
2022-08-17T22:08:21.824Z,100.00
2022-08-17T22:11:04.477Z,100.00
2022-08-17T22:13:38.822Z,100.00
2022-08-17T22:16:29.049Z,99.99
2022-08-17T22:19:05.266Z,99.86
2022-08-17T22:21:34.139Z,99.96
2022-08-17T22:24:18.227Z,100.00
2022-08-17T22:27:11.797Z,99.99
2022-08-17T22:30:22.466Z,100.00
2022-08-17T22:32:51.636Z,100.00
2022-08-17T22:35:43.701Z,99.88
2022-08-17T22:38:21.420Z,99.70
2022-08-17T22:40:58.143Z,99.96
2022-08-17T22:43:31.839Z,99.54
2022-08-17T22:46:09.249Z,99.51
2022-08-17T22:48:46.799Z,99.61
2022-08-17T22:51:23.551Z,99.42
2022-08-17T22:54:18.770Z,99.82
2022-08-17T22:57:19.960Z,99.98
2022-08-17T22:59:55.394Z,100.00
2022-08-17T23:02:28.970Z,100.00
2022-08-17T23:05:10.421Z,100.00
2022-08-17T23:07:45.170Z,100.00
2022-08-17T23:10:15.883Z,100.00
2022-08-17T23:12:44.619Z,100.00
2022-08-17T23:15:24.273Z,99.95
2022-08-17T23:17:55.817Z,100.00
2022-08-17T23:20:24.627Z,100.00
2022-08-17T23:22:53.660Z,100.00
2022-08-17T23:25:28.486Z,100.00
2022-08-17T23:28:01.756Z,100.00
2022-08-17T23:30:44.249Z,100.00
2022-08-17T23:33:39.329Z,100.00
2022-08-17T23:36:15.301Z,100.00
2022-08-17T23:38:47.105Z,100.00
2022-08-17T23:41:20.446Z,100.00
2022-08-17T23:43:53.462Z,100.00
2022-08-17T23:46:25.323Z,100.00
2022-08-17T23:48:54.388Z,100.00
2022-08-17T23:51:28.776Z,100.00
2022-08-17T23:54:11.823Z,100.00
2022-08-17T23:56:47.043Z,100.00
2022-08-17T23:59:18.835Z,100.00
